• Join FlightAware (Why Join?)
  • Login
  • US Flag 
05:15PM EDT


 

Airport Tracker/Info


-or-


 

Live Flight TrackerFlight Track Log ✈ CSN3949 ✈ 08-Jul-2014 ✈ ZGGG / CAN - ZUJZ / JZH

Flight Track Log - Related Links

Times and Time Zones

All times are in EDT time to prevent confusion due to time zone crossing. See the CSN3949 flight status page for this flight to view local times or setup timezone preferences in your user account.

Time Position Orientation Groundspeed Altitude Reporting Facility
EDT Latitude Longitude Course Direction KTS MPH feet Rate Location/Type
09:20PM 23.4725 113.2264 320° Northwest  Level Estimated
09:21PM 23.5525 113.1538 320° Northwest  Level Estimated
09:22PM 23.6325 113.0812 320° Northwest  Level Estimated
09:23PM 23.7125 113.0085 320° Northwest  Level Estimated
09:24PM 23.7924 112.9358 320° Northwest  Level Estimated
09:25PM 23.8723 112.8629 320° Northwest  Level Estimated
09:26PM 23.9521 112.7899 320° Northwest  Level Estimated
09:27PM 24.0347 112.7144 320° Northwest  Level Estimated
09:28PM 24.1171 112.6387 320° Northwest  Level Estimated
09:29PM 24.1982 112.5643 320° Northwest  Level Estimated
09:30PM 24.2793 112.4897 320° Northwest  Level Estimated
09:31PM 24.3603 112.4151 320° Northwest  Level Estimated
09:32PM 24.4412 112.3403 320° Northwest  Level Estimated
09:33PM 24.5222 112.2655 320° Northwest  Level Estimated
09:34PM 24.6031 112.1905 320° Northwest  Level Estimated
09:35PM 24.6839 112.1155 320° Northwest  Level Estimated
09:36PM 24.7647 112.0404 320° Northwest  Level Estimated
09:37PM 24.8455 111.9651 320° Northwest  Level Estimated
09:38PM 24.9263 111.8898 320° Northwest  Level Estimated
09:39PM 25.0070 111.8144 320° Northwest  Level Estimated
09:40PM 25.0877 111.7388 320° Northwest  Level Estimated
09:41PM 25.1683 111.6632 320° Northwest  Level Estimated
09:42PM 25.2489 111.5875 320° Northwest  Level Estimated
09:43PM 25.3294 111.5116 320° Northwest  Level Estimated
09:44PM 25.4099 111.4357 320° Northwest  Level Estimated
09:45PM 25.4904 111.3597 320° Northwest  Level Estimated
09:46PM 25.5709 111.2835 320° Northwest  Level Estimated
09:47PM 25.6513 111.2073 319° Northwest  Level Estimated
09:48PM 25.7316 111.1310 319° Northwest  Level Estimated
09:49PM 25.8119 111.0545 319° Northwest  Level Estimated
09:50PM 25.8922 110.9780 319° Northwest  Level Estimated
09:51PM 25.9724 110.9013 319° Northwest  Level Estimated
09:52PM 26.0526 110.8246 319° Northwest  Level Estimated
09:53PM 26.1328 110.7477 319° Northwest  Level Estimated
09:54PM 26.2129 110.6707 319° Northwest  Level Estimated
09:55PM 26.2930 110.5937 319° Northwest  Level Estimated
09:56PM 26.3730 110.5165 319° Northwest  Level Estimated
09:57PM 26.4530 110.4392 319° Northwest  Level Estimated
09:58PM 26.5330 110.3618 319° Northwest  Level Estimated
09:59PM 26.6129 110.2843 319° Northwest  Level Estimated
10:00PM 26.6927 110.2067 319° Northwest  Level Estimated
10:01PM 26.7726 110.1290 319° Northwest  Level Estimated
10:02PM 26.8523 110.0511 319° Northwest  Level Estimated
10:03PM 26.9321 109.9732 319° Northwest  Level Estimated
10:04PM 27.0118 109.8951 319° Northwest  Level Estimated
10:05PM 27.0914 109.8170 319° Northwest  Level Estimated
10:06PM 27.1710 109.7387 319° Northwest  Level Estimated
10:07PM 27.2506 109.6603 319° Northwest  Level Estimated
10:08PM 27.3301 109.5818 319° Northwest  Level Estimated
10:09PM 27.4096 109.5032 319° Northwest  Level Estimated
10:10PM 27.4890 109.4245 319° Northwest  Level Estimated
10:11PM 27.5684 109.3457 319° Northwest  Level Estimated
10:12PM 27.6478 109.2667 319° Northwest  Level Estimated
10:13PM 27.7271 109.1877 319° Northwest  Level Estimated
10:14PM 27.8063 109.1085 319° Northwest  Level Estimated
10:15PM 27.8855 109.0292 319° Northwest  Level Estimated
10:15PM 26.4740 107.1794 287° West 500 575 32,100  Level FlightAware ADS-B
10:15PM 26.4942 107.1031 287° West 499 574 32,100  Level FlightAware ADS-B
10:16PM 26.5136 107.0296 287° West 498 573 32,100  Level FlightAware ADS-B
10:16PM 26.5330 106.9557 287° West 496 571 32,100  Level FlightAware ADS-B
10:17PM 26.5599 106.8711 293° West 491 565 32,100  Level FlightAware ADS-B
10:18PM 26.5945 106.7921 299° West 487 560 32,100  Level FlightAware ADS-B
10:18PM 26.6299 106.7289 305° West 484 557 32,100  Level FlightAware ADS-B
10:19PM 26.6841 106.6491 308° West 481 554 32,100  Level FlightAware ADS-B
10:19PM 26.7188 106.5992 308° West 481 554 32,100  Level FlightAware ADS-B
10:20PM 26.7413 106.5663 308° West 481 554 32,100  Level FlightAware ADS-B
10:20PM 26.7990 106.4813 308° West 481 554 32,100  Level FlightAware ADS-B
10:23PM 27.0325 106.3799 339° North  Level Estimated
10:24PM 27.1311 106.3369 339° North  Level Estimated
10:25PM 27.2297 106.2939 339° North  Level Estimated
10:26PM 27.3283 106.2507 339° North  Level Estimated
10:27PM 27.4269 106.2075 339° North  Level Estimated
10:28PM 27.5254 106.1642 339° North  Level Estimated
10:29PM 27.6240 106.1208 339° North  Level Estimated
10:30PM 27.7225 106.0774 339° North  Level Estimated
10:31PM 27.8211 106.0339 339° North  Level Estimated
10:32PM 27.9196 105.9903 339° North  Level Estimated
10:33PM 28.0181 105.9466 339° North  Level Estimated
10:34PM 28.1165 105.9028 339° North  Level Estimated
10:35PM 28.2150 105.8590 339° North  Level Estimated
10:36PM 28.3135 105.8151 339° North  Level Estimated
10:37PM 28.4119 105.7711 339° North  Level Estimated
10:38PM 28.5103 105.7270 339° North  Level Estimated
10:39PM 28.6087 105.6828 338° Northwest  Level Estimated
10:40PM 28.7071 105.6386 338° Northwest  Level Estimated
10:41PM 28.8055 105.5942 338° Northwest  Level Estimated
10:42PM 28.9039 105.5498 338° Northwest  Level Estimated
10:43PM 29.0022 105.5053 338° Northwest  Level Estimated
10:44PM 29.1006 105.4607 338° Northwest  Level Estimated
10:45PM 29.1989 105.4161 338° Northwest  Level Estimated
10:46PM 29.2972 105.3713 338° Northwest  Level Estimated
10:47PM 29.3955 105.3264 338° Northwest  Level Estimated
10:48PM 29.4938 105.2815 338° Northwest  Level Estimated
10:49PM 29.5921 105.2365 338° Northwest  Level Estimated
10:50PM 29.6903 105.1914 338° Northwest  Level Estimated
10:51PM 29.7885 105.1462 338° Northwest  Level Estimated
10:52PM 29.8868 105.1009 338° Northwest  Level Estimated
10:53PM 29.9810 105.0574 338° Northwest  Level Estimated
10:54PM 30.0753 105.0137 338° Northwest  Level Estimated
10:55PM 30.1695 104.9700 338° Northwest  Level Estimated
10:56PM 30.2638 104.9262 338° Northwest  Level Estimated
10:57PM 30.3580 104.8823 338° Northwest  Level Estimated
10:58PM 30.4522 104.8383 338° Northwest  Level Estimated
10:59PM 30.5464 104.7943 338° Northwest  Level Estimated
11:00PM 30.6406 104.7501 338° Northwest  Level Estimated
11:01PM 30.7347 104.7059 338° Northwest  Level Estimated
11:02PM 30.8288 104.6616 338° Northwest  Level Estimated
11:03PM 30.9230 104.6172 338° Northwest  Level Estimated
11:04PM 31.0171 104.5727 338° Northwest  Level Estimated
11:05PM 31.1112 104.5281 338° Northwest  Level Estimated
11:06PM 31.2053 104.4834 338° Northwest  Level Estimated
11:07PM 31.2993 104.4387 338° Northwest  Level Estimated
11:08PM 31.3934 104.3938 338° Northwest  Level Estimated
11:09PM 31.4874 104.3489 338° Northwest  Level Estimated
11:10PM 31.5814 104.3039 338° Northwest  Level Estimated
11:11PM 31.6754 104.2588 338° Northwest  Level Estimated
11:12PM 31.7694 104.2135 338° Northwest  Level Estimated
11:13PM 31.8634 104.1682 338° Northwest  Level Estimated
11:14PM 31.9574 104.1228 338° Northwest  Level Estimated
11:15PM 32.0513 104.0774 338° Northwest  Level Estimated
11:16PM 32.1452 104.0318 338° Northwest  Level Estimated
11:17PM 32.2391 103.9861 338° Northwest  Level Estimated
11:18PM 32.3330 103.9403 338° Northwest  Level Estimated
11:19PM 32.4269 103.8945 338° Northwest  Level Estimated
11:20PM 32.5208 103.8485 338° Northwest  Level Estimated
11:21PM 32.6146 103.8025 338° Northwest  Level Estimated
11:22PM 32.7084 103.7563 338° Northwest  Level Estimated
11:23PM 32.8022 103.7101 337° Northwest  Level Estimated
11:24PM 32.8570 103.6830 337° Northwest  Level Estimated
11:25PM 32.8570 103.6830 North  Level Estimated
11:26PM 32.8570 103.6830 North  Level Estimated
11:27PM 32.8570 103.6830 North  Level Estimated
11:28PM 32.8570 103.6830 North  Level Estimated
11:29PM 32.8570 103.6830 North  Level Estimated
11:30PM 32.8570 103.6830 North  Level Estimated
11:31PM 32.8570 103.6830 North  Level Estimated
11:32PM 32.8570 103.6830 North  Level Estimated
11:33PM 32.8570 103.6830 North  Level Estimated
11:34PM 32.8570 103.6830 North  Level Estimated
11:35PM 32.8570 103.6830 North  Level Estimated
11:36PM 32.8570 103.6830 North  Level Estimated
11:37PM 32.8570 103.6830 North  Level Estimated
11:38PM 32.8570 103.6830 North  Level Estimated
11:39PM 32.8570 103.6830 North  Level Estimated
11:40PM 32.8570 103.6830 North  Level Estimated
11:41PM 32.8570 103.6830 North  Level Estimated